Time;durP1;ratioP1;P1;durP2;ratioP2;P2;SDS_P1;SDS_P2;PMS_P1;PMS_P2;Temp;Humidity;BMP_temperature;BMP_pressure;BME280_temperature;BME280_humidity;BME280_pressure;Samples;Min_cycle;Max_cycle;Signal;HPM_P1;HPM_P2
2022/04/04 00:00:47;;;;;;;4.55;2.95;;;;;;;;;;5067402;28;20025;-60
2022/04/04 00:03:12;;;;;;;3.22;2.13;;;;;;;;;;5067299;28;20575;-60
2022/04/04 00:05:39;;;;;;;5.28;2.90;;;;;;;;;;5065754;28;20174;-60
2022/04/04 00:08:08;;;;;;;6.35;3.25;;;;;;;;;;5065100;28;20123;-60
2022/04/04 00:10:34;;;;;;;7.35;3.75;;;;;;;;;;5065746;28;20017;-58
2022/04/04 00:13:00;;;;;;;7.05;3.45;;;;;;;;;;5063653;28;20064;-60
2022/04/04 00:15:25;;;;;;;5.43;3.33;;;;;;;;;;5067390;28;20458;-59
2022/04/04 00:17:51;;;;;;;10.43;5.45;;;;;;;;;;5068169;28;20081;-60
2022/04/04 00:20:17;;;;;;;10.32;5.22;;;;;;;;;;5063338;28;20410;-60
2022/04/04 00:22:43;;;;;;;8.32;4.45;;;;;;;;;;5065487;28;20052;-59
2022/04/04 00:25:09;;;;;;;9.70;4.95;;;;;;;;;;5065225;28;20043;-60
2022/04/04 00:27:35;;;;;;;13.55;6.10;;;;;;;;;;5066503;28;20028;-60
2022/04/04 00:30:01;;;;;;;17.00;6.78;;;;;;;;;;5069558;28;20047;-60
2022/04/04 00:32:27;;;;;;;10.45;6.38;;;;;;;;;;5067786;28;20056;-60
2022/04/04 00:34:52;;;;;;;12.05;6.07;;;;;;;;;;5061228;28;20075;-60
2022/04/04 00:37:18;;;;;;;16.52;7.32;;;;;;;;;;5066724;28;20463;-60
2022/04/04 00:39:43;;;;;;;21.92;8.45;;;;;;;;;;5068127;28;20043;-60
2022/04/04 00:42:09;;;;;;;13.93;6.82;;;;;;;;;;5067690;28;20456;-60
2022/04/04 00:44:35;;;;;;;21.98;8.50;;;;;;;;;;5065398;28;20028;-60
2022/04/04 00:47:01;;;;;;;17.20;6.60;;;;;;;;;;5067150;28;20039;-61
2022/04/04 00:49:27;;;;;;;18.52;7.65;;;;;;;;;;5062340;28;20036;-61
2022/04/04 00:51:52;;;;;;;19.52;7.65;;;;;;;;;;5064059;28;20319;-61
2022/04/04 00:54:18;;;;;;;17.20;7.32;;;;;;;;;;5064559;28;20087;-60
2022/04/04 00:56:45;;;;;;;17.33;7.53;;;;;;;;;;5066511;28;20032;-61
2022/04/04 00:59:13;;;;;;;22.20;8.20;;;;;;;;;;5068172;28;20115;-60
2022/04/04 01:01:39;;;;;;;22.05;8.90;;;;;;;;;;5064194;28;20048;-61
2022/04/04 01:04:06;;;;;;;25.77;8.60;;;;;;;;;;5064418;28;20392;-60
2022/04/04 01:06:31;;;;;;;13.90;5.53;;;;;;;;;;5062376;28;20414;-60
2022/04/04 01:08:57;;;;;;;25.27;8.90;;;;;;;;;;5062953;28;20052;-60
2022/04/04 01:11:22;;;;;;;24.33;8.50;;;;;;;;;;5064221;28;20025;-60
2022/04/04 01:13:49;;;;;;;23.58;8.63;;;;;;;;;;5068793;28;20048;-60
2022/04/04 01:16:15;;;;;;;23.50;9.00;;;;;;;;;;5066824;28;20039;-59
2022/04/04 01:18:42;;;;;;;19.20;8.82;;;;;;;;;;5063817;28;20184;-60
2022/04/04 01:21:09;;;;;;;25.17;9.57;;;;;;;;;;5064006;28;20491;-60
2022/04/04 01:23:41;;;;;;;22.45;9.27;;;;;;;;;;5066768;28;20028;-60
2022/04/04 01:26:09;;;;;;;19.63;9.00;;;;;;;;;;5058170;28;20020;-60
2022/04/04 01:28:34;;;;;;;16.65;7.50;;;;;;;;;;5069667;28;20104;-60
2022/04/04 01:31:00;;;;;;;18.40;8.30;;;;;;;;;;5066321;28;20035;-60
2022/04/04 01:33:26;;;;;;;19.27;9.50;;;;;;;;;;5062932;28;20036;-60
2022/04/04 01:35:52;;;;;;;19.55;8.50;;;;;;;;;;5064728;28;20040;-60
2022/04/04 01:38:17;;;;;;;16.33;7.72;;;;;;;;;;5064762;28;20034;-60
2022/04/04 01:40:43;;;;;;;16.50;7.43;;;;;;;;;;5065449;28;20056;-60
2022/04/04 01:43:09;;;;;;;13.85;6.75;;;;;;;;;;5067355;28;20024;-59
2022/04/04 01:48:19;;;;;;;14.50;6.18;;;;;;;;;;5062439;28;20036;-60
2022/04/04 01:50:44;;;;;;;11.10;6.43;;;;;;;;;;5060889;28;20032;-60
2022/04/04 01:53:29;;;;;;;8.27;4.35;;;;;;;;;;5063454;28;20057;-60
2022/04/04 01:56:03;;;;;;;9.60;4.68;;;;;;;;;;5062620;28;20032;-60
2022/04/04 01:58:29;;;;;;;11.45;4.50;;;;;;;;;;5064386;28;20111;-60
2022/04/04 02:00:56;;;;;;;10.40;4.93;;;;;;;;;;5064442;28;20467;-60
2022/04/04 02:03:23;;;;;;;8.05;4.25;;;;;;;;;;5063801;28;20031;-60
2022/04/04 02:05:49;;;;;;;8.43;4.57;;;;;;;;;;5064078;28;20509;-58
2022/04/04 02:08:14;;;;;;;7.93;3.33;;;;;;;;;;5063210;28;20028;-60
2022/04/04 02:10:40;;;;;;;5.55;3.85;;;;;;;;;;5065806;28;20024;-60
2022/04/04 02:13:05;;;;;;;6.22;3.28;;;;;;;;;;5064731;28;20403;-60
2022/04/04 02:15:31;;;;;;;5.35;2.63;;;;;;;;;;5066793;28;20386;-60
2022/04/04 02:17:57;;;;;;;4.63;3.50;;;;;;;;;;5064604;28;20036;-60
2022/04/04 02:20:22;;;;;;;2.92;1.90;;;;;;;;;;5067466;28;20024;-60
2022/04/04 02:22:48;;;;;;;2.30;1.88;;;;;;;;;;5065821;28;20036;-60
2022/04/04 02:25:14;;;;;;;5.50;1.65;;;;;;;;;;5061716;28;20220;-60
2022/04/04 02:27:40;;;;;;;2.40;1.88;;;;;;;;;;5064526;28;20350;-60
2022/04/04 02:30:06;;;;;;;2.75;1.90;;;;;;;;;;5064802;28;20035;-60
2022/04/04 02:32:32;;;;;;;2.97;2.08;;;;;;;;;;5067170;28;20100;-60
2022/04/04 02:34:57;;;;;;;5.03;1.98;;;;;;;;;;5068023;28;20482;-60
2022/04/04 02:37:23;;;;;;;2.97;1.88;;;;;;;;;;5063297;28;20090;-60
2022/04/04 02:39:48;;;;;;;4.18;1.60;;;;;;;;;;5062322;28;20036;-60
2022/04/04 02:42:14;;;;;;;3.30;2.15;;;;;;;;;;5062573;28;20032;-60
2022/04/04 02:44:39;;;;;;;4.88;2.30;;;;;;;;;;5058553;28;20474;-60
2022/04/04 02:47:05;;;;;;;3.40;2.58;;;;;;;;;;5063357;28;20078;-60
2022/04/04 02:49:30;;;;;;;4.57;3.47;;;;;;;;;;5061475;28;20024;-60
2022/04/04 02:51:57;;;;;;;7.93;4.03;;;;;;;;;;5063212;28;20556;-60
2022/04/04 02:54:22;;;;;;;5.88;3.33;;;;;;;;;;5062760;28;20123;-60
2022/04/04 02:56:47;;;;;;;6.63;4.68;;;;;;;;;;5065585;28;20182;-60
2022/04/04 02:59:13;;;;;;;6.10;4.03;;;;;;;;;;5062269;28;20028;-60
2022/04/04 03:01:41;;;;;;;4.35;2.85;;;;;;;;;;5068387;28;20067;-60
2022/04/04 03:04:07;;;;;;;5.82;3.55;;;;;;;;;;5064826;28;20032;-60
2022/04/04 03:06:34;;;;;;;6.78;3.60;;;;;;;;;;5065516;28;20103;-60
2022/04/04 03:09:00;;;;;;;5.53;3.47;;;;;;;;;;5063766;28;20045;-60
2022/04/04 03:11:25;;;;;;;4.65;2.92;;;;;;;;;;5064652;28;20063;-60
2022/04/04 03:13:51;;;;;;;4.05;2.10;;;;;;;;;;5065310;28;20036;-60
2022/04/04 03:16:16;;;;;;;6.45;3.17;;;;;;;;;;5070539;28;20127;-60
2022/04/04 03:18:43;;;;;;;4.53;2.53;;;;;;;;;;5070613;28;20396;-59
2022/04/04 03:21:08;;;;;;;2.95;1.95;;;;;;;;;;5063849;28;20039;-60
2022/04/04 03:23:39;;;;;;;3.78;2.30;;;;;;;;;;5063916;28;20029;-60
2022/04/04 03:26:05;;;;;;;3.55;2.28;;;;;;;;;;5066693;28;20083;-60
2022/04/04 03:28:30;;;;;;;1.52;1.38;;;;;;;;;;5068140;28;20060;-59
2022/04/04 03:30:56;;;;;;;6.57;1.63;;;;;;;;;;5067010;28;20059;-60
2022/04/04 03:33:22;;;;;;;6.35;1.83;;;;;;;;;;5065790;28;20032;-59
2022/04/04 03:35:47;;;;;;;3.42;1.67;;;;;;;;;;5068782;28;20082;-60
2022/04/04 03:38:14;;;;;;;3.70;1.00;;;;;;;;;;5060312;28;20028;-59
2022/04/04 03:40:40;;;;;;;1.45;1.10;;;;;;;;;;5065110;28;20048;-60
2022/04/04 03:43:06;;;;;;;3.58;1.00;;;;;;;;;;5064961;28;20066;-60
2022/04/04 03:45:32;;;;;;;4.25;0.90;;;;;;;;;;5063041;28;20053;-60
2022/04/04 03:47:58;;;;;;;1.75;0.80;;;;;;;;;;5061970;28;20142;-59
2022/04/04 03:50:26;;;;;;;0.98;0.80;;;;;;;;;;5057515;28;20030;-59
2022/04/04 03:52:53;;;;;;;4.32;0.90;;;;;;;;;;5061496;28;20071;-60
2022/04/04 03:55:25;;;;;;;2.78;0.85;;;;;;;;;;5061681;28;20486;-60
2022/04/04 03:57:51;;;;;;;3.50;1.10;;;;;;;;;;5063400;28;20041;-60
2022/04/04 04:00:17;;;;;;;2.92;0.77;;;;;;;;;;5061246;28;20024;-60
2022/04/04 04:02:44;;;;;;;1.23;0.70;;;;;;;;;;5069278;28;20059;-60
2022/04/04 04:05:10;;;;;;;3.15;0.98;;;;;;;;;;5070275;28;20223;-60
2022/04/04 04:07:36;;;;;;;1.38;1.00;;;;;;;;;;5063945;28;20431;-59
2022/04/04 04:10:03;;;;;;;2.00;0.70;;;;;;;;;;5061782;28;20158;-60
2022/04/04 04:12:28;;;;;;;2.17;1.00;;;;;;;;;;5064053;28;20039;-60
2022/04/04 04:14:54;;;;;;;4.65;1.08;;;;;;;;;;5065300;28;20475;-59
2022/04/04 04:17:21;;;;;;;3.65;1.02;;;;;;;;;;5066179;28;20372;-59
2022/04/04 04:22:31;;;;;;;3.95;1.30;;;;;;;;;;5066185;28;20574;-60
2022/04/04 04:24:58;;;;;;;2.53;1.30;;;;;;;;;;5066439;28;20514;-60
2022/04/04 04:27:24;;;;;;;4.72;1.13;;;;;;;;;;5061825;28;20085;-60
2022/04/04 04:29:49;;;;;;;3.15;1.20;;;;;;;;;;5073405;28;20032;-60
2022/04/04 04:32:15;;;;;;;2.53;0.80;;;;;;;;;;5069588;28;20036;-59
2022/04/04 04:34:46;;;;;;;5.80;0.80;;;;;;;;;;5065958;28;20032;-59
2022/04/04 04:37:12;;;;;;;1.48;0.65;;;;;;;;;;5068124;28;20043;-59
2022/04/04 04:39:38;;;;;;;3.33;0.88;;;;;;;;;;5069818;28;20111;-60
2022/04/04 04:42:03;;;;;;;2.40;0.65;;;;;;;;;;5060978;28;20605;-60
2022/04/04 04:44:29;;;;;;;2.00;0.63;;;;;;;;;;5065414;28;20032;-60
2022/04/04 04:46:54;;;;;;;1.55;0.50;;;;;;;;;;5066615;28;20111;-59
2022/04/04 04:49:20;;;;;;;0.63;0.20;;;;;;;;;;5067360;28;20440;-59
2022/04/04 04:51:46;;;;;;;2.10;0.45;;;;;;;;;;5067846;28;20064;-60
2022/04/04 04:54:11;;;;;;;0.82;0.52;;;;;;;;;;5067216;28;20542;-60
2022/04/04 04:56:37;;;;;;;2.40;0.63;;;;;;;;;;5060641;28;20032;-60
2022/04/04 04:59:03;;;;;;;0.88;0.60;;;;;;;;;;5065579;28;20250;-60
2022/04/04 05:01:29;;;;;;;1.38;0.82;;;;;;;;;;5067520;28;20404;-60
2022/04/04 05:03:54;;;;;;;1.30;0.60;;;;;;;;;;5064189;28;20036;-59
2022/04/04 05:06:20;;;;;;;4.65;0.65;;;;;;;;;;5067865;28;20490;-59
2022/04/04 05:08:45;;;;;;;1.35;0.60;;;;;;;;;;5065090;28;20437;-59
2022/04/04 05:11:11;;;;;;;0.85;0.50;;;;;;;;;;5071609;28;20036;-60
2022/04/04 05:13:36;;;;;;;1.45;0.30;;;;;;;;;;5068445;28;20070;-59
2022/04/04 05:16:07;;;;;;;1.20;0.60;;;;;;;;;;5064531;28;20024;-59
2022/04/04 05:18:32;;;;;;;2.17;0.90;;;;;;;;;;5063745;28;20233;-59
2022/04/04 05:20:58;;;;;;;2.17;0.90;;;;;;;;;;5067276;28;20051;-59
2022/04/04 05:23:23;;;;;;;1.10;0.63;;;;;;;;;;5070749;28;20050;-58
2022/04/04 05:25:49;;;;;;;2.65;1.35;;;;;;;;;;5065215;28;20494;-59
2022/04/04 05:28:14;;;;;;;2.40;1.20;;;;;;;;;;5065050;28;20032;-59
2022/04/04 05:30:41;;;;;;;2.13;1.10;;;;;;;;;;5062545;28;20559;-59
2022/04/04 05:33:09;;;;;;;1.95;1.25;;;;;;;;;;5067648;28;20036;-59
2022/04/04 05:35:35;;;;;;;1.88;1.08;;;;;;;;;;5063732;28;20035;-59
2022/04/04 05:38:00;;;;;;;5.57;1.27;;;;;;;;;;5064100;28;20032;-59
2022/04/04 05:40:26;;;;;;;4.53;1.05;;;;;;;;;;5063348;28;20036;-59
2022/04/04 05:42:52;;;;;;;4.28;1.27;;;;;;;;;;5067215;28;20043;-59
2022/04/04 05:45:18;;;;;;;1.42;0.95;;;;;;;;;;5063600;28;20024;-59
2022/04/04 05:47:44;;;;;;;3.10;1.00;;;;;;;;;;5066567;28;20039;-59
2022/04/04 05:50:09;;;;;;;2.75;1.30;;;;;;;;;;5055617;28;22148;-60
2022/04/04 05:52:35;;;;;;;6.88;1.77;;;;;;;;;;5059436;28;20035;-59
2022/04/04 05:55:02;;;;;;;3.28;2.00;;;;;;;;;;5065476;28;20082;-59
2022/04/04 05:57:31;;;;;;;3.17;2.13;;;;;;;;;;5066659;28;20505;-60
2022/04/04 05:59:57;;;;;;;3.22;2.35;;;;;;;;;;5064180;28;20040;-59
2022/04/04 06:02:23;;;;;;;5.57;2.08;;;;;;;;;;5059695;28;20024;-59
2022/04/04 06:04:50;;;;;;;3.53;1.80;;;;;;;;;;5064026;28;20254;-59
2022/04/04 06:07:16;;;;;;;4.30;1.83;;;;;;;;;;5062046;28;20023;-59
2022/04/04 06:09:42;;;;;;;3.78;2.08;;;;;;;;;;5065644;28;20076;-59
2022/04/04 06:12:08;;;;;;;7.90;2.22;;;;;;;;;;5069743;28;20059;-59
2022/04/04 06:14:35;;;;;;;4.53;1.75;;;;;;;;;;5067315;28;20052;-58
2022/04/04 06:17:03;;;;;;;4.03;1.90;;;;;;;;;;5066005;28;20522;-58
2022/04/04 06:19:29;;;;;;;10.82;1.10;;;;;;;;;;5067803;28;20025;-58
2022/04/04 06:21:54;;;;;;;5.30;2.08;;;;;;;;;;5057302;28;20047;-59
2022/04/04 06:24:20;;;;;;;6.13;2.08;;;;;;;;;;5062177;28;20314;-59
2022/04/04 06:26:46;;;;;;;8.05;2.17;;;;;;;;;;5061934;28;20037;-59
2022/04/04 06:29:12;;;;;;;4.00;2.05;;;;;;;;;;5063094;28;20031;-59
2022/04/04 06:31:38;;;;;;;5.03;2.30;;;;;;;;;;5060688;28;20055;-58
2022/04/04 06:34:08;;;;;;;3.90;1.67;;;;;;;;;;5064594;28;20043;-59
2022/04/04 06:36:34;;;;;;;4.07;1.63;;;;;;;;;;5062650;28;20492;-59
2022/04/04 06:38:59;;;;;;;3.28;1.90;;;;;;;;;;5076754;28;20036;-58
2022/04/04 06:41:25;;;;;;;5.22;1.67;;;;;;;;;;5058426;28;20025;-58
2022/04/04 06:43:51;;;;;;;4.93;2.00;;;;;;;;;;5063411;28;20478;-60
2022/04/04 06:46:17;;;;;;;2.40;1.23;;;;;;;;;;5066294;28;20128;-61
2022/04/04 06:48:45;;;;;;;2.88;1.95;;;;;;;;;;5061714;28;20035;-59
2022/04/04 06:51:11;;;;;;;10.20;2.20;;;;;;;;;;5058606;28;20024;-59
2022/04/04 06:53:37;;;;;;;5.30;1.63;;;;;;;;;;5063437;28;20032;-59
2022/04/04 06:56:03;;;;;;;2.50;1.52;;;;;;;;;;5060122;28;20506;-61
2022/04/04 06:58:29;;;;;;;3.80;1.63;;;;;;;;;;5061788;28;20498;-59
2022/04/04 07:00:54;;;;;;;2.35;1.60;;;;;;;;;;5058483;28;20025;-58
2022/04/04 07:03:20;;;;;;;5.93;2.03;;;;;;;;;;5064551;28;20030;-61
2022/04/04 07:05:46;;;;;;;2.30;1.33;;;;;;;;;;5061375;28;20551;-61
2022/04/04 07:08:11;;;;;;;2.63;1.27;;;;;;;;;;5063335;28;20078;-60
2022/04/04 07:10:37;;;;;;;2.55;1.75;;;;;;;;;;5060607;28;20090;-60
2022/04/04 07:13:06;;;;;;;5.68;1.75;;;;;;;;;;5060153;28;20032;-59
2022/04/04 07:15:32;;;;;;;3.60;1.35;;;;;;;;;;5056618;28;20123;-60
2022/04/04 07:17:58;;;;;;;5.68;1.20;;;;;;;;;;5064029;28;20028;-64
2022/04/04 07:20:24;;;;;;;6.07;1.75;;;;;;;;;;5061687;28;20086;-60
2022/04/04 07:22:50;;;;;;;6.82;1.63;;;;;;;;;;5061617;28;20079;-59
2022/04/04 07:25:16;;;;;;;1.33;1.00;;;;;;;;;;5059903;28;20523;-58
2022/04/04 07:27:45;;;;;;;7.85;1.73;;;;;;;;;;5059696;28;20032;-58
2022/04/04 07:30:14;;;;;;;3.80;1.30;;;;;;;;;;5057433;28;20792;-57
2022/04/04 07:32:40;;;;;;;4.60;1.50;;;;;;;;;;5068871;28;20063;-58
2022/04/04 07:35:11;;;;;;;5.63;1.73;;;;;;;;;;5069106;28;20060;-57
2022/04/04 07:37:41;;;;;;;5.38;1.33;;;;;;;;;;5069242;28;20462;-57
2022/04/04 07:40:10;;;;;;;2.78;1.33;;;;;;;;;;5067666;28;20036;-57
2022/04/04 07:42:38;;;;;;;5.47;1.65;;;;;;;;;;5069793;28;20031;-57
2022/04/04 07:45:05;;;;;;;3.88;0.90;;;;;;;;;;5069966;28;20067;-57
2022/04/04 07:47:30;;;;;;;1.85;1.10;;;;;;;;;;5067424;28;20118;-57
2022/04/04 07:49:56;;;;;;;3.75;1.15;;;;;;;;;;5068113;28;20708;-59
2022/04/04 07:52:22;;;;;;;4.90;0.85;;;;;;;;;;5067512;28;20040;-57
2022/04/04 07:54:47;;;;;;;3.22;1.52;;;;;;;;;;5066685;28;20081;-57
2022/04/04 07:57:13;;;;;;;5.25;1.30;;;;;;;;;;5072237;28;21094;-57
2022/04/04 07:59:38;;;;;;;5.88;1.17;;;;;;;;;;5070585;28;20056;-57
2022/04/04 08:02:04;;;;;;;2.58;1.10;;;;;;;;;;5068816;28;21353;-55
2022/04/04 08:04:29;;;;;;;2.38;1.20;;;;;;;;;;5066299;28;20029;-57
2022/04/04 08:06:55;;;;;;;1.65;0.85;;;;;;;;;;5069328;28;20024;-56
2022/04/04 08:09:20;;;;;;;1.80;1.02;;;;;;;;;;5075083;28;20068;-56
2022/04/04 08:11:46;;;;;;;0.80;0.70;;;;;;;;;;5063567;28;20059;-57
2022/04/04 08:14:12;;;;;;;2.88;0.93;;;;;;;;;;5065795;28;20093;-57
2022/04/04 08:16:37;;;;;;;2.33;0.88;;;;;;;;;;5067349;28;20049;-58
2022/04/04 08:19:03;;;;;;;4.00;1.80;;;;;;;;;;5067558;23;20219;-80
2022/04/04 08:21:30;;;;;;;1.90;1.15;;;;;;;;;;5042590;28;20026;-76
2022/04/04 08:23:55;;;;;;;1.92;1.02;;;;;;;;;;5043244;28;20013;-76
2022/04/04 08:26:21;;;;;;;2.28;1.27;;;;;;;;;;5038605;28;20029;-77
2022/04/04 08:28:46;;;;;;;1.40;1.20;;;;;;;;;;5040715;28;20021;-76
2022/04/04 08:31:12;;;;;;;3.95;1.23;;;;;;;;;;5042926;28;20077;-76
2022/04/04 08:33:38;;;;;;;3.17;1.15;;;;;;;;;;5043175;28;20017;-75
2022/04/04 08:36:07;;;;;;;2.03;1.15;;;;;;;;;;5043354;28;20149;-76
2022/04/04 08:38:35;;;;;;;3.35;1.55;;;;;;;;;;5057654;28;20040;-75
2022/04/04 08:41:05;;;;;;;1.88;1.63;;;;;;;;;;5042041;28;20286;-77
2022/04/04 08:43:36;;;;;;;5.57;1.55;;;;;;;;;;5050293;28;20021;-76
2022/04/04 08:46:05;;;;;;;1.93;1.27;;;;;;;;;;5058817;28;20024;-76
2022/04/04 08:48:32;;;;;;;2.63;1.40;;;;;;;;;;5040901;28;20036;-76
2022/04/04 08:50:58;;;;;;;2.75;1.27;;;;;;;;;;5061320;28;20212;-76
2022/04/04 08:53:23;;;;;;;2.78;0.93;;;;;;;;;;5060949;28;20013;-76
2022/04/04 08:55:49;;;;;;;2.47;0.98;;;;;;;;;;5042749;28;20067;-77
2022/04/04 08:58:15;;;;;;;2.35;1.00;;;;;;;;;;5058501;28;20028;-76
2022/04/04 09:00:41;;;;;;;3.88;0.77;;;;;;;;;;5070801;28;20041;-77
2022/04/04 09:03:10;;;;;;;2.92;0.90;;;;;;;;;;5058437;28;20013;-77
2022/04/04 09:05:51;;;;;;;4.43;1.10;;;;;;;;;;5056027;28;20142;-76
2022/04/04 09:08:18;;;;;;;2.78;0.80;;;;;;;;;;5056983;28;20168;-75
2022/04/04 09:10:44;;;;;;;2.28;0.80;;;;;;;;;;5074909;28;20013;-75
2022/04/04 09:13:15;;;;;;;4.03;1.35;;;;;;;;;;5055982;28;20020;-77
2022/04/04 09:15:55;;;;;;;4.90;1.10;;;;;;;;;;5061974;28;20067;-76
2022/04/04 09:18:45;;;;;;;4.32;1.13;;;;;;;;;;5074689;28;20013;-75
2022/04/04 09:21:20;;;;;;;2.13;0.80;;;;;;;;;;5077257;28;20017;-75
2022/04/04 09:23:45;;;;;;;1.08;0.50;;;;;;;;;;5058291;28;20088;-76
2022/04/04 09:26:30;;;;;;;1.77;0.70;;;;;;;;;;5059747;28;20118;-75
2022/04/04 09:28:56;;;;;;;2.03;0.80;;;;;;;;;;5061040;28;20017;-77
2022/04/04 09:31:23;;;;;;;3.72;1.05;;;;;;;;;;5047237;28;20159;-76
2022/04/04 09:33:50;;;;;;;2.22;1.23;;;;;;;;;;5054681;28;20380;-76
2022/04/04 09:36:16;;;;;;;2.35;1.05;;;;;;;;;;5045260;28;20313;-74
2022/04/04 09:38:55;;;;;;;4.97;1.58;;;;;;;;;;5059080;28;20025;-76
2022/04/04 09:41:23;;;;;;;3.05;1.00;;;;;;;;;;5077566;28;20039;-75
2022/04/04 09:43:52;;;;;;;2.83;1.00;;;;;;;;;;5045345;28;20016;-75
2022/04/04 09:46:18;;;;;;;1.85;0.98;;;;;;;;;;5061593;28;20024;-73
2022/04/04 09:49:23;;;;;;;3.10;1.20;;;;;;;;;;5056217;28;20062;-75
2022/04/04 09:51:50;;;;;;;2.03;1.08;;;;;;;;;;5040243;28;20028;-75
2022/04/04 09:54:22;;;;;;;4.15;1.38;;;;;;;;;;5061324;28;20037;-76
2022/04/04 09:56:48;;;;;;;;;;;;;;;;;;5061362;28;20021;-76
2022/04/04 09:59:15;;;;;;;2.00;1.08;;;;;;;;;;5055182;28;19942;-77
2022/04/04 10:01:42;;;;;;;1.80;0.93;;;;;;;;;;5061014;28;20273;-77
2022/04/04 10:04:10;;;;;;;2.28;0.55;;;;;;;;;;5046640;28;20088;-76
2022/04/04 10:06:37;;;;;;;2.08;0.55;;;;;;;;;;5058726;28;20016;-75
2022/04/04 10:09:03;;;;;;;2.63;1.00;;;;;;;;;;5043317;28;20031;-77
2022/04/04 10:11:35;;;;;;;1.10;0.73;;;;;;;;;;5062809;28;20017;-76
2022/04/04 10:14:01;;;;;;;1.63;0.47;;;;;;;;;;5079973;28;20058;-76
2022/04/04 10:16:27;;;;;;;0.68;0.38;;;;;;;;;;5062478;28;20031;-76
2022/04/04 10:18:59;;;;;;;1.73;0.75;;;;;;;;;;5060970;28;20029;-78
2022/04/04 10:21:26;;;;;;;;;;;;;;;;;;5048568;28;20025;-76
2022/04/04 10:24:02;;;;;;;1.67;0.70;;;;;;;;;;5063430;28;19900;-75
2022/04/04 10:26:31;;;;;;;4.78;0.70;;;;;;;;;;5061391;28;20020;-76
2022/04/04 10:29:07;;;;;;;2.08;0.28;;;;;;;;;;5062341;28;20168;-76
2022/04/04 10:31:42;;;;;;;3.20;0.55;;;;;;;;;;5052575;28;20005;-77
2022/04/04 10:34:17;;;;;;;2.75;0.40;;;;;;;;;;5051493;28;20017;-75
2022/04/04 10:37:07;;;;;;;1.90;0.50;;;;;;;;;;5063393;28;20043;-78
2022/04/04 10:39:44;;;;;;;2.50;0.35;;;;;;;;;;5076346;28;20070;-75
2022/04/04 10:42:41;;;;;;;1.85;0.63;;;;;;;;;;5062305;28;20017;-76
2022/04/04 10:45:06;;;;;;;1.95;0.70;;;;;;;;;;5042620;28;20111;-75
2022/04/04 10:47:34;;;;;;;1.15;0.50;;;;;;;;;;5057999;28;20159;-76
2022/04/04 10:50:24;;;;;;;1.38;0.52;;;;;;;;;;5060189;28;20016;-76
2022/04/04 10:52:53;;;;;;;3.85;0.20;;;;;;;;;;5074471;28;20104;-77
2022/04/04 10:55:28;;;;;;;0.47;0.13;;;;;;;;;;5057743;28;20032;-75
2022/04/04 10:58:15;;;;;;;0.95;0.40;;;;;;;;;;5056374;28;20017;-75
2022/04/04 11:00:57;;;;;;;1.73;0.13;;;;;;;;;;5062685;28;20037;-75
2022/04/04 11:03:34;;;;;;;1.65;0.30;;;;;;;;;;5060946;28;20020;-75
2022/04/04 11:09:19;;;;;;;0.88;0.30;;;;;;;;;;5055818;28;20075;-76
2022/04/04 11:12:13;;;;;;;2.72;0.52;;;;;;;;;;5042594;28;20043;-76
2022/04/04 11:14:42;;;;;;;1.92;0.50;;;;;;;;;;5057163;28;20021;-77
2022/04/04 11:17:23;;;;;;;6.95;0.75;;;;;;;;;;5060330;28;20088;-76
2022/04/04 11:20:12;;;;;;;2.03;0.73;;;;;;;;;;5071972;28;20102;-76
2022/04/04 11:22:43;;;;;;;2.95;0.60;;;;;;;;;;5074158;28;21247;-76
2022/04/04 11:25:20;;;;;;;1.02;0.30;;;;;;;;;;5088704;28;20088;-77
2022/04/04 11:27:49;;;;;;;0.60;0.20;;;;;;;;;;5077881;28;20016;-75
2022/04/04 11:30:17;;;;;;;0.15;0.00;;;;;;;;;;5075026;28;20019;-75
2022/04/04 11:32:49;;;;;;;1.63;0.60;;;;;;;;;;5080477;28;20052;-74
2022/04/04 11:35:20;;;;;;;2.33;0.38;;;;;;;;;;5082825;28;20042;-74
2022/04/04 11:38:19;;;;;;;1.48;0.30;;;;;;;;;;5091824;28;20083;-76
2022/04/04 11:40:55;;;;;;;2.45;0.10;;;;;;;;;;5064912;28;20028;-77
2022/04/04 11:43:26;;;;;;;4.93;0.45;;;;;;;;;;5080411;28;20036;-75
2022/04/04 11:45:53;;;;;;;1.33;0.40;;;;;;;;;;5060597;28;20331;-76
2022/04/04 11:48:28;;;;;;;1.98;0.47;;;;;;;;;;5077461;28;20025;-75
2022/04/04 11:50:57;;;;;;;1.90;0.75;;;;;;;;;;5072933;28;20012;-80
2022/04/04 11:53:26;;;;;;;1.17;0.30;;;;;;;;;;5082502;28;20298;-81
2022/04/04 11:56:00;;;;;;;0.98;0.20;;;;;;;;;;5068411;28;20063;-81
2022/04/04 11:58:27;;;;;;;1.60;0.40;;;;;;;;;;5083816;28;20015;-80
2022/04/04 12:01:00;;;;;;;1.20;0.40;;;;;;;;;;5064362;28;20058;-81
2022/04/04 12:03:27;;;;;;;0.77;0.30;;;;;;;;;;5076146;28;20223;-81
2022/04/04 12:05:53;;;;;;;1.05;0.32;;;;;;;;;;5083301;28;20423;-81
2022/04/04 12:08:21;;;;;;;3.05;1.30;;;;;;;;;;5081672;28;20024;-80
2022/04/04 12:10:49;;;;;;;1.08;0.20;;;;;;;;;;5079037;28;20017;-80
2022/04/04 12:13:22;;;;;;;1.90;0.57;;;;;;;;;;5081872;28;20020;-80
2022/04/04 12:15:50;;;;;;;3.08;0.57;;;;;;;;;;5079526;28;20255;-80
2022/04/04 12:18:22;;;;;;;1.60;0.50;;;;;;;;;;5087045;28;20024;-81
2022/04/04 12:20:49;;;;;;;2.05;0.57;;;;;;;;;;5090907;28;20029;-80
2022/04/04 12:26:09;;;;;;;1.38;0.57;;;;;;;;;;5076827;28;20102;-80
2022/04/04 12:28:37;;;;;;;4.18;0.43;;;;;;;;;;5105718;28;20016;-81
2022/04/04 12:31:14;;;;;;;1.48;0.40;;;;;;;;;;5087433;28;20013;-82
2022/04/04 12:33:40;;;;;;;0.70;0.20;;;;;;;;;;5087113;28;20024;-81
2022/04/04 12:36:06;;;;;;;4.25;0.35;;;;;;;;;;5095091;28;20016;-81
2022/04/04 12:38:37;;;;;;;2.38;0.50;;;;;;;;;;5076159;28;20028;-80
2022/04/04 12:41:13;;;;;;;1.92;0.35;;;;;;;;;;5084667;28;20016;-80
2022/04/04 12:43:41;;;;;;;4.40;0.20;;;;;;;;;;5084986;28;20016;-80
2022/04/04 12:46:24;;;;;;;1.58;0.30;;;;;;;;;;5074544;28;20028;-79
2022/04/04 12:48:50;;;;;;;1.15;0.22;;;;;;;;;;5080882;28;20027;-79
2022/04/04 12:51:30;;;;;;;4.13;0.43;;;;;;;;;;5086375;28;20043;-80
2022/04/04 12:54:00;;;;;;;1.67;0.40;;;;;;;;;;5083133;28;20016;-80
2022/04/04 12:56:27;;;;;;;1.63;0.30;;;;;;;;;;5086786;28;20069;-79
2022/04/04 12:59:03;;;;;;;0.70;0.40;;;;;;;;;;5089666;28;20024;-80
2022/04/04 13:01:28;;;;;;;2.00;0.40;;;;;;;;;;5088943;28;20040;-79
2022/04/04 13:03:55;;;;;;;0.38;0.15;;;;;;;;;;5080202;28;20035;-81
2022/04/04 13:06:22;;;;;;;2.70;0.45;;;;;;;;;;5086090;28;20024;-80
2022/04/04 13:08:54;;;;;;;3.53;0.40;;;;;;;;;;5082566;28;20099;-80
2022/04/04 13:11:20;;;;;;;2.60;0.20;;;;;;;;;;5085458;28;20008;-79
2022/04/04 13:14:07;;;;;;;0.40;0.22;;;;;;;;;;5085510;28;20040;-78
2022/04/04 13:16:36;;;;;;;4.80;0.30;;;;;;;;;;5086510;28;20023;-81
2022/04/04 13:19:06;;;;;;;4.75;0.50;;;;;;;;;;5098000;28;20317;-81
2022/04/04 13:21:33;;;;;;;0.90;0.30;;;;;;;;;;5083324;28;20095;-80
2022/04/04 13:23:59;;;;;;;3.60;0.55;;;;;;;;;;5072301;28;20370;-79
2022/04/04 13:26:25;;;;;;;1.55;0.20;;;;;;;;;;5085327;28;20016;-81
2022/04/04 13:28:51;;;;;;;0.82;0.40;;;;;;;;;;5088758;28;20023;-80
2022/04/04 13:31:19;;;;;;;0.68;0.40;;;;;;;;;;5085112;28;20017;-80
2022/04/04 13:33:46;;;;;;;1.88;0.32;;;;;;;;;;5088118;28;20020;-81
2022/04/04 13:36:13;;;;;;;5.22;0.40;;;;;;;;;;5088917;28;20024;-81
2022/04/04 13:38:38;;;;;;;2.08;0.43;;;;;;;;;;5067406;28;20032;-79
2022/04/04 13:41:04;;;;;;;2.80;0.60;;;;;;;;;;5087016;28;20035;-80
2022/04/04 13:43:30;;;;;;;2.22;0.45;;;;;;;;;;5081943;28;20258;-81
2022/04/04 13:45:56;;;;;;;0.63;0.20;;;;;;;;;;5085801;28;20020;-80
2022/04/04 13:48:22;;;;;;;1.88;0.30;;;;;;;;;;5084675;28;20016;-80
2022/04/04 13:51:01;;;;;;;;;;;;;;;;;;;;;
2022/04/04 13:53:27;;;;;;;2.35;0.30;;;;;;;;;;5081102;28;20048;-79
2022/04/04 13:55:55;;;;;;;1.33;0.40;;;;;;;;;;5088615;28;20020;-81
2022/04/04 13:58:21;;;;;;;3.63;0.22;;;;;;;;;;5089054;28;20021;-80
2022/04/04 14:00:48;;;;;;;0.80;0.30;;;;;;;;;;5083382;28;20082;-79
2022/04/04 14:03:13;;;;;;;2.63;0.40;;;;;;;;;;5067296;28;20050;-79
2022/04/04 14:05:44;;;;;;;1.90;0.43;;;;;;;;;;5064412;28;20028;-80
2022/04/04 14:08:13;;;;;;;2.50;0.30;;;;;;;;;;5082539;28;20021;-79
2022/04/04 14:10:41;;;;;;;0.60;0.22;;;;;;;;;;5065360;28;20108;-81
2022/04/04 14:13:07;;;;;;;2.78;0.50;;;;;;;;;;5077871;28;20062;-81
2022/04/04 14:15:33;;;;;;;6.32;0.68;;;;;;;;;;5080624;28;20038;-81
2022/04/04 14:17:59;;;;;;;4.80;0.50;;;;;;;;;;5060455;28;20263;-80
2022/04/04 14:20:24;;;;;;;0.63;0.32;;;;;;;;;;5085970;28;20035;-80
2022/04/04 14:22:50;;;;;;;2.22;0.50;;;;;;;;;;5075458;28;20024;-81
2022/04/04 14:25:16;;;;;;;1.40;0.57;;;;;;;;;;5061053;28;20024;-81
2022/04/04 14:27:41;;;;;;;1.33;0.25;;;;;;;;;;5086085;28;20024;-81
2022/04/04 14:30:08;;;;;;;3.78;0.60;;;;;;;;;;5099848;28;20131;-80
2022/04/04 14:32:33;;;;;;;1.23;0.40;;;;;;;;;;5087237;28;20032;-80
2022/04/04 14:34:59;;;;;;;1.55;0.50;;;;;;;;;;5068639;28;20214;-80
2022/04/04 14:37:26;;;;;;;5.68;0.47;;;;;;;;;;5077763;28;20087;-82
2022/04/04 14:39:51;;;;;;;1.05;0.30;;;;;;;;;;5082169;28;20031;-81
2022/04/04 14:42:17;;;;;;;5.60;0.40;;;;;;;;;;5079312;28;20021;-81
2022/04/04 14:44:48;;;;;;;1.45;0.22;;;;;;;;;;5076635;28;20020;-81
2022/04/04 14:47:16;;;;;;;5.72;0.45;;;;;;;;;;5080977;28;20083;-81
2022/04/04 14:49:41;;;;;;;2.40;0.50;;;;;;;;;;5083335;28;20020;-82
2022/04/04 14:52:07;;;;;;;2.20;0.40;;;;;;;;;;5079114;28;20286;-82
2022/04/04 14:54:33;;;;;;;3.35;0.52;;;;;;;;;;5086785;28;20066;-83
2022/04/04 14:57:01;;;;;;;1.45;0.65;;;;;;;;;;5086266;28;20020;-82
2022/04/04 14:59:27;;;;;;;1.95;0.65;;;;;;;;;;5065123;28;20050;-80